Time;durP1;ratioP1;P1;durP2;ratioP2;P2;SDS_P1;SDS_P2;PMS_P1;PMS_P2;Temp;Humidity;BMP_temperature;BMP_pressure;BME280_temperature;BME280_humidity;BME280_pressure;Samples;Min_cycle;Max_cycle;Signal;HPM_P1;HPM_P2
2021/03/20 00:00:27;;;;;;;7.47;5.07;;;2.90;99.90;;;;;;5030346;28;20768;-88
2021/03/20 00:02:53;;;;;;;7.75;5.15;;;2.90;99.90;;;;;;5031847;28;20022;-89
2021/03/20 00:05:19;;;;;;;7.35;5.15;;;2.90;99.90;;;;;;5032330;28;20037;-88
2021/03/20 00:07:45;;;;;;;6.80;4.50;;;2.80;99.90;;;;;;5032529;28;20061;-90
2021/03/20 00:10:14;;;;;;;6.38;4.30;;;2.80;99.90;;;;;;5032369;28;20105;-88
2021/03/20 00:12:42;;;;;;;7.32;4.55;;;2.90;99.90;;;;;;5031400;28;20645;-88
2021/03/20 00:15:09;;;;;;;9.05;4.18;;;2.90;99.90;;;;;;5031290;28;20503;-87
2021/03/20 00:17:35;;;;;;;7.13;4.53;;;2.90;99.90;;;;;;5031112;28;20041;-87
2021/03/20 00:20:01;;;;;;;7.43;4.13;;;3.00;99.90;;;;;;5030551;28;20021;-88
2021/03/20 00:22:27;;;;;;;7.28;4.75;;;3.00;99.90;;;;;;5031564;28;20021;-89
2021/03/20 00:24:52;;;;;;;8.95;5.82;;;3.00;99.90;;;;;;5030318;28;20430;-87
2021/03/20 00:27:18;;;;;;;8.02;5.32;;;2.90;99.90;;;;;;5030582;28;20749;-88
2021/03/20 00:29:43;;;;;;;7.93;5.03;;;2.90;99.90;;;;;;5029248;28;20099;-88
2021/03/20 00:32:09;;;;;;;8.80;5.22;;;2.90;99.90;;;;;;5029906;28;20120;-88
2021/03/20 00:34:35;;;;;;;8.73;5.25;;;2.90;99.90;;;;;;5029458;28;20061;-89
2021/03/20 00:37:00;;;;;;;8.45;5.47;;;3.00;99.90;;;;;;5031925;28;20033;-89
2021/03/20 00:39:26;;;;;;;9.68;5.28;;;3.00;99.90;;;;;;5031578;28;20128;-89
2021/03/20 00:41:51;;;;;;;6.45;4.65;;;3.00;99.90;;;;;;5030835;28;20459;-88
2021/03/20 00:44:17;;;;;;;7.07;4.50;;;3.00;99.90;;;;;;5030036;28;20014;-88
2021/03/20 00:46:43;;;;;;;6.13;4.53;;;3.00;99.90;;;;;;5030297;28;20076;-87
2021/03/20 00:49:08;;;;;;;6.97;4.75;;;3.00;99.90;;;;;;5029638;28;20403;-88
2021/03/20 00:51:34;;;;;;;8.63;5.28;;;3.00;99.90;;;;;;5031808;28;20053;-87
2021/03/20 00:54:00;;;;;;;8.20;6.00;;;3.00;99.90;;;;;;5029778;28;20060;-87
2021/03/20 00:56:26;;;;;;;6.75;4.63;;;3.00;99.90;;;;;;5030129;28;20041;-89
2021/03/20 00:58:51;;;;;;;8.60;5.63;;;2.90;99.90;;;;;;5032402;28;20075;-89
2021/03/20 01:01:21;;;;;;;8.00;5.90;;;2.90;99.90;;;;;;5029976;28;20056;-89
2021/03/20 01:03:47;;;;;;;8.80;5.22;;;2.90;99.90;;;;;;5031993;28;20112;-89
2021/03/20 01:06:23;;;;;;;7.35;4.70;;;2.90;99.90;;;;;;5030327;28;20041;-88
2021/03/20 01:08:48;;;;;;;8.30;4.90;;;2.80;99.90;;;;;;5030977;28;20029;-88
2021/03/20 01:11:16;;;;;;;7.78;5.13;;;2.70;99.90;;;;;;5032009;28;20025;-86
2021/03/20 01:13:42;;;;;;;6.47;4.35;;;2.70;99.90;;;;;;5030800;28;20060;-87
2021/03/20 01:16:08;;;;;;;6.85;4.63;;;2.60;99.90;;;;;;5030541;28;20034;-87
2021/03/20 01:18:35;;;;;;;6.20;4.57;;;2.60;99.90;;;;;;5029251;28;20395;-87
2021/03/20 01:21:01;;;;;;;7.10;5.10;;;2.60;99.90;;;;;;5029873;28;20025;-87
2021/03/20 01:23:27;;;;;;;7.75;5.60;;;2.50;99.90;;;;;;5030461;28;20655;-88
2021/03/20 01:25:52;;;;;;;7.53;4.60;;;2.50;99.90;;;;;;5029830;28;20124;-88
2021/03/20 01:28:23;;;;;;;8.65;5.18;;;2.40;99.90;;;;;;5030012;28;20105;-88
2021/03/20 01:30:49;;;;;;;8.98;5.32;;;2.40;99.90;;;;;;5029906;28;20065;-88
2021/03/20 01:33:14;;;;;;;7.50;5.18;;;2.30;99.90;;;;;;5029253;28;20049;-88
2021/03/20 01:35:40;;;;;;;9.35;5.10;;;2.30;99.90;;;;;;5031080;28;20037;-88
2021/03/20 01:38:06;;;;;;;7.88;4.78;;;2.30;99.90;;;;;;5029606;28;20479;-88
2021/03/20 01:40:40;;;;;;;6.65;4.35;;;2.20;99.90;;;;;;5029759;28;20065;-88
2021/03/20 01:43:07;;;;;;;7.03;4.72;;;2.20;99.90;;;;;;5028761;28;20108;-87
2021/03/20 01:45:35;;;;;;;9.20;4.68;;;2.10;99.90;;;;;;5029156;28;20045;-86
2021/03/20 01:48:13;;;;;;;6.03;3.78;;;2.10;99.90;;;;;;5028792;28;20754;-86
2021/03/20 01:50:41;;;;;;;6.82;4.03;;;2.10;99.90;;;;;;5029996;28;20068;-87
2021/03/20 01:53:26;;;;;;;5.80;3.60;;;2.00;99.90;;;;;;5029871;28;20060;-86
2021/03/20 01:55:52;;;;;;;6.90;3.33;;;2.00;99.90;;;;;;5029303;28;20037;-88
2021/03/20 01:58:17;;;;;;;5.40;3.47;;;2.00;99.90;;;;;;5028802;28;20018;-87
2021/03/20 02:00:45;;;;;;;6.07;3.75;;;2.00;99.90;;;;;;5027883;28;20087;-87
2021/03/20 02:03:20;;;;;;;6.60;3.40;;;1.90;99.90;;;;;;5028069;28;20037;-88
2021/03/20 02:05:47;;;;;;;5.75;3.40;;;1.90;99.90;;;;;;5029295;28;20033;-86
2021/03/20 02:08:18;;;;;;;5.45;3.47;;;1.90;99.90;;;;;;5027703;28;20467;-87
2021/03/20 02:10:46;;;;;;;5.00;3.15;;;1.90;99.90;;;;;;5027495;28;20515;-87
2021/03/20 02:13:11;;;;;;;6.43;3.65;;;1.80;99.90;;;;;;5026962;28;20048;-87
2021/03/20 02:15:44;;;;;;;6.60;3.40;;;1.80;99.90;;;;;;5027565;28;20033;-86
2021/03/20 02:18:45;;;;;;;5.57;3.95;;;1.80;99.90;;;;;;5027700;28;20051;-86
2021/03/20 02:21:14;;;;;;;6.13;3.40;;;1.70;99.90;;;;;;5028209;28;20025;-87
2021/03/20 02:24:01;;;;;;;5.38;3.35;;;1.70;99.90;;;;;;5027735;28;20028;-86
2021/03/20 02:26:45;;;;;;;5.07;3.30;;;1.70;99.90;;;;;;5028372;28;20029;-87
2021/03/20 02:29:49;;;;;;;5.10;3.08;;;1.70;99.90;;;;;;5028350;28;20037;-86
2021/03/20 02:32:47;;;;;;;6.78;3.95;;;1.60;99.90;;;;;;5008019;28;20030;-86
2021/03/20 02:35:33;;;;;;;5.00;3.35;;;1.60;99.90;;;;;;5028509;28;20670;-87
2021/03/20 02:38:13;;;;;;;6.30;3.80;;;1.50;99.90;;;;;;5029837;28;20095;-88
2021/03/20 02:40:49;;;;;;;4.50;3.25;;;1.50;99.90;;;;;;5030020;28;20038;-88
2021/03/20 02:43:34;;;;;;;5.40;2.88;;;1.50;99.90;;;;;;5029197;28;20115;-86
2021/03/20 02:46:10;;;;;;;5.38;3.30;;;1.50;99.90;;;;;;5021202;28;20050;-87
2021/03/20 02:48:46;;;;;;;5.07;3.40;;;1.40;99.90;;;;;;5037152;28;20083;-86
2021/03/20 02:51:35;;;;;;;4.38;3.10;;;1.40;99.90;;;;;;5028412;28;20032;-87
2021/03/20 02:54:12;;;;;;;5.47;2.97;;;1.40;99.90;;;;;;5040357;28;20037;-87
2021/03/20 02:56:51;;;;;;;5.45;3.35;;;1.30;99.90;;;;;;5030781;28;20403;-88
2021/03/20 02:59:19;;;;;;;5.32;3.45;;;1.30;99.90;;;;;;5031935;28;20021;-87
2021/03/20 03:01:47;;;;;;;4.60;2.90;;;1.30;99.90;;;;;;5032097;28;20041;-89
2021/03/20 03:04:17;;;;;;;4.93;3.13;;;1.20;99.90;;;;;;5032301;28;20021;-88
2021/03/20 03:06:56;;;;;;;5.05;3.13;;;1.20;99.90;;;;;;5033794;28;20089;-88
2021/03/20 03:09:35;;;;;;;4.60;3.30;;;1.20;99.90;;;;;;5032131;28;20018;-87
2021/03/20 03:12:10;;;;;;;4.53;3.15;;;1.20;99.90;;;;;;5030771;28;20025;-88
2021/03/20 03:14:51;;;;;;;4.32;2.65;;;1.10;99.90;;;;;;5031255;28;20120;-88
2021/03/20 03:17:18;;;;;;;3.42;2.47;;;1.10;99.90;;;;;;5031544;28;20033;-87
2021/03/20 03:20:02;;;;;;;4.78;3.25;;;1.10;99.90;;;;;;5030971;28;20120;-87
2021/03/20 03:22:38;;;;;;;5.43;2.97;;;1.00;99.90;;;;;;5031718;28;20029;-87
2021/03/20 03:25:08;;;;;;;4.60;3.00;;;1.00;99.90;;;;;;5031736;28;20383;-88
2021/03/20 03:27:37;;;;;;;4.13;2.60;;;1.00;99.90;;;;;;5031849;28;20033;-89
2021/03/20 03:30:11;;;;;;;4.70;3.40;;;1.00;99.90;;;;;;5031617;28;20452;-88
2021/03/20 03:32:41;;;;;;;5.75;3.25;;;0.90;99.90;;;;;;5031745;28;20479;-88
2021/03/20 03:35:33;;;;;;;4.65;2.70;;;0.90;99.90;;;;;;5032026;28;20032;-88
2021/03/20 03:38:24;;;;;;;5.07;3.33;;;0.80;99.90;;;;;;5032405;28;20041;-88
2021/03/20 03:41:02;;;;;;;5.55;3.17;;;0.80;99.90;;;;;;5032213;28;20017;-88
2021/03/20 03:43:28;;;;;;;4.82;3.00;;;0.70;99.90;;;;;;5033109;28;20392;-87
2021/03/20 03:45:55;;;;;;;4.47;2.95;;;0.70;99.90;;;;;;5034484;28;20033;-88
2021/03/20 03:48:23;;;;;;;5.35;3.53;;;0.70;99.90;;;;;;5035294;28;20032;-89
2021/03/20 03:50:50;;;;;;;5.40;3.20;;;0.70;99.90;;;;;;5036180;28;20033;-87
2021/03/20 03:53:19;;;;;;;5.22;3.20;;;0.60;99.90;;;;;;5035047;28;20021;-88
2021/03/20 03:55:45;;;;;;;5.75;3.28;;;0.60;99.90;;;;;;5036340;28;20037;-87
2021/03/20 03:58:28;;;;;;;5.57;3.50;;;0.50;99.90;;;;;;5036522;28;20139;-87
2021/03/20 04:01:16;;;;;;;5.97;3.70;;;0.50;99.90;;;;;;5036163;28;20048;-87
2021/03/20 04:04:01;;;;;;;6.85;3.88;;;0.50;99.90;;;;;;5036372;28;20276;-87
2021/03/20 04:06:57;;;;;;;6.18;3.75;;;0.50;99.90;;;;;;5035226;28;20344;-88
2021/03/20 04:09:34;;;;;;;6.57;3.60;;;0.40;99.90;;;;;;5035317;28;20536;-88
2021/03/20 04:12:11;;;;;;;6.20;3.83;;;0.40;99.90;;;;;;5051300;28;20088;-88
2021/03/20 04:15:07;;;;;;;5.68;3.78;;;0.40;99.90;;;;;;5035293;28;20493;-88
2021/03/20 04:17:38;;;;;;;5.47;3.85;;;0.40;99.90;;;;;;5034359;28;20132;-88
2021/03/20 04:20:18;;;;;;;5.30;3.38;;;0.30;99.90;;;;;;5051485;28;20376;-86
2021/03/20 04:23:01;;;;;;;5.10;3.22;;;0.30;99.90;;;;;;5035876;28;20025;-87
2021/03/20 04:25:43;;;;;;;5.88;3.60;;;0.30;99.90;;;;;;5034608;28;20029;-88
2021/03/20 04:28:18;;;;;;;5.57;3.67;;;0.30;99.90;;;;;;5034800;28;20509;-88
2021/03/20 04:30:48;;;;;;;6.22;4.20;;;0.30;99.90;;;;;;5051002;28;20575;-87
2021/03/20 04:33:29;;;;;;;8.32;4.65;;;0.20;99.90;;;;;;5051052;28;20018;-89
2021/03/20 04:35:59;;;;;;;6.07;3.50;;;0.20;99.90;;;;;;5034546;28;20029;-88
2021/03/20 04:38:26;;;;;;;6.35;4.07;;;0.20;99.90;;;;;;5034867;28;20045;-89
2021/03/20 04:40:56;;;;;;;6.00;3.95;;;0.20;99.90;;;;;;5035889;28;20578;-88
2021/03/20 04:43:26;;;;;;;6.40;4.03;;;0.20;99.90;;;;;;5035860;28;20040;-88
2021/03/20 04:45:59;;;;;;;5.95;3.60;;;0.20;99.90;;;;;;5034180;28;20041;-87
2021/03/20 04:48:28;;;;;;;5.40;3.70;;;0.10;99.90;;;;;;5033983;28;20026;-87
2021/03/20 04:51:05;;;;;;;5.43;3.80;;;0.10;99.90;;;;;;5034274;28;20026;-87
2021/03/20 04:53:30;;;;;;;5.95;4.03;;;0.10;99.90;;;;;;5035512;28;20100;-88
2021/03/20 04:56:04;;;;;;;6.47;3.72;;;0.10;99.90;;;;;;5034856;28;20652;-87
2021/03/20 04:58:55;;;;;;;5.97;3.95;;;0.10;99.90;;;;;;5035206;28;20072;-86
2021/03/20 05:01:21;;;;;;;6.20;3.45;;;0.10;99.90;;;;;;5034905;28;20060;-88
2021/03/20 05:03:50;;;;;;;5.40;3.25;;;0.00;99.90;;;;;;5050645;28;20569;-87
2021/03/20 05:06:21;;;;;;;6.28;4.07;;;0.00;99.90;;;;;;5033812;28;20029;-87
2021/03/20 05:08:57;;;;;;;5.80;3.63;;;0.00;99.90;;;;;;5034169;28;20065;-87
2021/03/20 05:11:31;;;;;;;4.57;3.20;;;-0.10;99.90;;;;;;5034198;28;20434;-88
2021/03/20 05:14:17;;;;;;;4.85;3.13;;;-0.10;99.90;;;;;;5033822;28;20057;-87
2021/03/20 05:16:55;;;;;;;5.22;3.33;;;-0.10;99.90;;;;;;5033517;28;20025;-87
2021/03/20 05:19:22;;;;;;;6.25;3.58;;;-0.10;99.90;;;;;;5033415;28;20022;-86
2021/03/20 05:21:50;;;;;;;4.50;3.08;;;-0.10;99.90;;;;;;5033290;28;20029;-87
2021/03/20 05:24:21;;;;;;;5.35;3.63;;;-0.10;99.90;;;;;;5035286;28;20047;-88
2021/03/20 05:26:47;;;;;;;6.28;3.63;;;-0.20;99.90;;;;;;5034808;28;20075;-87
2021/03/20 05:29:13;;;;;;;5.85;3.30;;;-0.20;99.90;;;;;;5033118;28;20099;-88
2021/03/20 05:31:39;;;;;;;6.78;3.50;;;-0.20;99.90;;;;;;5034009;28;20484;-87
2021/03/20 05:34:19;;;;;;;6.60;3.85;;;-0.20;99.90;;;;;;5033333;28;20026;-88
2021/03/20 05:36:45;;;;;;;5.68;3.55;;;-0.20;99.90;;;;;;5034793;28;20045;-88
2021/03/20 05:39:11;;;;;;;5.50;3.55;;;-0.20;99.90;;;;;;5034619;28;20530;-88
2021/03/20 05:42:04;;;;;;;6.35;3.80;;;-0.20;99.90;;;;;;5032969;28;20446;-86
2021/03/20 05:44:50;;;;;;;5.82;3.72;;;-0.20;99.90;;;;;;5033926;28;20053;-86
2021/03/20 05:47:46;;;;;;;5.88;3.55;;;-0.20;99.90;;;;;;5049363;28;20032;-87
2021/03/20 05:50:17;;;;;;;5.38;3.15;;;-0.20;99.90;;;;;;5032662;28;20095;-87
2021/03/20 05:53:17;;;;;;;6.18;3.63;;;-0.30;99.90;;;;;;5032537;28;20018;-87
2021/03/20 05:55:57;;;;;;;5.55;3.35;;;-0.30;99.90;;;;;;5033698;28;20045;-87
2021/03/20 05:58:48;;;;;;;5.90;3.45;;;-0.30;99.90;;;;;;5032629;28;20030;-88
2021/03/20 06:01:28;;;;;;;5.95;3.63;;;-0.30;99.90;;;;;;5049352;28;20044;-88
2021/03/20 06:04:24;;;;;;;5.28;3.25;;;-0.30;99.90;;;;;;5034186;28;20029;-88
2021/03/20 06:07:24;;;;;;;6.47;3.60;;;-0.30;99.90;;;;;;5049180;28;20033;-87
2021/03/20 06:10:14;;;;;;;5.10;3.40;;;-0.30;99.90;;;;;;5029649;28;20052;-88
2021/03/20 06:13:16;;;;;;;6.45;3.85;;;-0.30;99.90;;;;;;5032608;28;20108;-88
2021/03/20 06:16:06;;;;;;;5.75;4.35;;;-0.30;99.90;;;;;;5032655;28;20037;-88
2021/03/20 06:18:50;;;;;;;6.38;3.60;;;-0.30;99.90;;;;;;5032295;28;20018;-87
2021/03/20 06:21:19;;;;;;;;;;;-0.30;99.90;;;;;;5033026;28;20472;-87
2021/03/20 06:23:53;;;;;;;5.43;3.28;;;-0.20;99.90;;;;;;5032466;28;19952;-88
2021/03/20 06:26:23;;;;;;;6.55;3.05;;;-0.20;99.90;;;;;;5033763;28;20028;-89
2021/03/20 06:29:15;;;;;;;5.50;3.20;;;-0.20;99.90;;;;;;5032772;28;20049;-89
2021/03/20 06:31:50;;;;;;;5.40;3.17;;;-0.10;99.90;;;;;;5032354;28;20044;-88
2021/03/20 06:34:22;;;;;;;5.13;3.08;;;-0.10;99.90;;;;;;5032608;28;20048;-89
2021/03/20 06:37:08;;;;;;;4.53;3.20;;;0.00;99.90;;;;;;5049338;28;20483;-90
2021/03/20 06:39:50;;;;;;;6.65;3.60;;;0.00;99.90;;;;;;5022348;28;20041;-88
2021/03/20 06:42:24;;;;;;;6.35;3.28;;;0.10;99.90;;;;;;5032576;28;20017;-89
2021/03/20 06:44:59;;;;;;;4.35;3.03;;;0.10;99.90;;;;;;5048948;28;20048;-88
2021/03/20 06:47:28;;;;;;;5.93;3.53;;;0.10;99.90;;;;;;5032370;28;20032;-88
2021/03/20 06:50:19;;;;;;;4.22;2.97;;;0.20;99.90;;;;;;5033457;28;20057;-87
2021/03/20 06:52:52;;;;;;;4.40;3.05;;;0.30;99.90;;;;;;5032514;28;20014;-89
2021/03/20 06:55:25;;;;;;;4.97;3.28;;;0.40;99.90;;;;;;5032963;28;20033;-88
2021/03/20 06:57:51;;;;;;;5.40;2.85;;;0.40;99.90;;;;;;5032548;28;20021;-89
2021/03/20 07:00:34;;;;;;;5.50;3.00;;;0.60;99.90;;;;;;5031916;28;20078;-89
2021/03/20 07:03:15;;;;;;;5.25;3.00;;;0.70;99.90;;;;;;5032469;28;20061;-90
2021/03/20 07:05:58;;;;;;;4.82;2.42;;;0.80;99.90;;;;;;5049480;28;20132;-90
2021/03/20 07:08:36;;;;;;;4.07;2.83;;;0.90;99.90;;;;;;5033791;28;20116;-89
2021/03/20 07:11:19;;;;;;;4.43;2.42;;;0.90;99.90;;;;;;5033477;28;20049;-88
2021/03/20 07:13:50;;;;;;;4.95;2.58;;;1.00;99.90;;;;;;5032278;28;20108;-89
2021/03/20 07:16:21;;;;;;;4.70;2.80;;;1.20;99.90;;;;;;5032406;28;20067;-90
2021/03/20 07:18:49;;;;;;;3.63;2.40;;;1.40;99.90;;;;;;5033043;28;20032;-89
2021/03/20 07:21:24;;;;;;;6.43;3.40;;;1.50;99.90;;;;;;5035904;28;20017;-89
2021/03/20 07:23:56;;;;;;;3.78;2.45;;;1.60;99.90;;;;;;5052939;28;20030;-88
2021/03/20 07:26:22;;;;;;;4.45;2.58;;;1.80;99.90;;;;;;5036209;28;20075;-88
2021/03/20 07:28:54;;;;;;;5.65;2.58;;;1.90;99.90;;;;;;5036253;28;20022;-88
2021/03/20 07:31:23;;;;;;;5.85;2.58;;;2.00;99.90;;;;;;5036061;28;20137;-88
2021/03/20 07:33:53;;;;;;;3.75;2.38;;;2.10;99.90;;;;;;5036113;28;20029;-90
2021/03/20 07:36:54;;;;;;;4.68;2.30;;;2.20;99.90;;;;;;5036228;28;20033;-90
2021/03/20 07:39:24;;;;;;;5.10;2.78;;;2.30;99.90;;;;;;5024578;28;20072;-87
2021/03/20 07:41:59;;;;;;;5.40;3.03;;;2.50;99.90;;;;;;5037294;28;20480;-88
2021/03/20 07:44:27;;;;;;;6.25;2.92;;;2.50;99.90;;;;;;5035317;28;20068;-87
2021/03/20 07:46:57;;;;;;;5.40;2.80;;;2.60;99.90;;;;;;5036576;28;20518;-89
2021/03/20 07:49:31;;;;;;;5.18;2.90;;;2.60;99.90;;;;;;5049986;28;20399;-89
2021/03/20 07:52:04;;;;;;;6.95;3.42;;;2.60;99.90;;;;;;5042508;28;20104;-88
2021/03/20 07:54:36;;;;;;;5.32;2.78;;;2.60;99.90;;;;;;5051032;28;20024;-90
2021/03/20 07:57:16;;;;;;;6.72;3.35;;;2.60;99.90;;;;;;5015328;28;20037;-91
2021/03/20 07:59:51;;;;;;;6.78;3.20;;;2.60;99.90;;;;;;5039233;28;20022;-89
2021/03/20 08:02:33;;;;;;;4.15;2.85;;;2.70;99.90;;;;;;5034612;28;20021;-90
2021/03/20 08:05:17;;;;;;;8.90;3.43;;;2.70;99.90;;;;;;5035023;28;20029;-91
2021/03/20 08:07:49;;;;;;;4.90;2.95;;;2.80;99.90;;;;;;5034007;28;20037;-90
2021/03/20 08:10:24;;;;;;;4.05;2.65;;;2.80;99.90;;;;;;5034368;28;20477;-88
2021/03/20 08:13:22;;;;;;;5.50;3.13;;;2.90;99.90;;;;;;5036398;28;20025;-90
2021/03/20 08:15:52;;;;;;;4.53;3.17;;;3.00;99.90;;;;;;5032042;28;20034;-89
2021/03/20 08:18:22;;;;;;;7.80;4.05;;;3.00;99.90;;;;;;5034056;28;20025;-88
2021/03/20 08:21:12;;;;;;;6.90;4.22;;;3.10;99.90;;;;;;5034404;28;20030;-92
2021/03/20 08:24:05;;;;;;;7.63;3.80;;;3.20;99.90;;;;;;5034532;28;20092;-91
2021/03/20 08:26:41;;;;;;;5.63;3.83;;;3.30;99.90;;;;;;5035094;28;20045;-92
2021/03/20 08:29:30;;;;;;;6.30;3.60;;;3.50;99.90;;;;;;5036816;28;20014;-89
2021/03/20 08:32:15;;;;;;;6.40;3.88;;;3.60;99.90;;;;;;5041357;28;20412;-91
2021/03/20 08:35:03;;;;;;;5.32;3.25;;;3.80;99.90;;;;;;5044152;28;20490;-89
2021/03/20 08:37:37;;;;;;;7.22;3.42;;;4.00;99.90;;;;;;5045379;28;20029;-88
2021/03/20 08:40:19;;;;;;;5.95;3.40;;;4.20;99.90;;;;;;5014577;28;20454;-90
2021/03/20 08:43:22;;;;;;;6.38;3.60;;;4.40;99.90;;;;;;5013919;28;20475;-90
2021/03/20 08:46:25;;;;;;;4.80;3.10;;;4.70;99.90;;;;;;5014994;28;20133;-91
2021/03/20 08:49:09;;;;;;;5.03;2.70;;;4.80;99.90;;;;;;5014318;28;20073;-91
2021/03/20 08:51:37;;;;;;;;;;;5.10;99.90;;;;;;5015307;28;20029;-92
2021/03/20 08:54:32;;;;;;;5.88;3.67;;;5.20;99.90;;;;;;5031685;28;19912;-92
2021/03/20 08:56:58;;;;;;;5.55;3.75;;;5.20;99.90;;;;;;5015868;28;20405;-92
2021/03/20 08:59:47;;;;;;;7.05;3.92;;;5.30;99.60;;;;;;5036760;28;20032;-91
2021/03/20 09:02:25;;;;;;;5.95;3.20;;;5.30;99.50;;;;;;5043945;28;20108;-92
2021/03/20 09:05:11;;;;;;;6.00;3.63;;;5.40;99.60;;;;;;5046993;28;20098;-92
2021/03/20 09:07:51;;;;;;;5.15;3.20;;;5.50;99.80;;;;;;5030861;28;20036;-93
2021/03/20 09:10:24;;;;;;;6.15;3.33;;;5.50;99.70;;;;;;5039577;28;20020;-91
2021/03/20 09:13:12;;;;;;;6.80;3.92;;;5.40;99.60;;;;;;5013684;28;20373;-91
2021/03/20 09:15:43;;;;;;;6.00;3.72;;;5.50;99.50;;;;;;5011729;28;20048;-91
2021/03/20 09:18:13;;;;;;;6.80;3.83;;;5.50;99.60;;;;;;5014420;28;20017;-89
2021/03/20 09:21:01;;;;;;;6.97;4.40;;;5.50;99.40;;;;;;5013199;28;20040;-91
2021/03/20 09:23:38;;;;;;;7.05;4.60;;;5.40;98.30;;;;;;5013499;28;20022;-89
2021/03/20 09:26:12;;;;;;;6.05;3.97;;;5.20;98.80;;;;;;5012933;28;20022;-87
2021/03/20 09:28:56;;;;;;;6.45;3.75;;;5.20;99.10;;;;;;5013388;28;20136;-89
2021/03/20 09:31:31;;;;;;;5.95;3.35;;;5.30;99.10;;;;;;5014347;28;20034;-88
2021/03/20 09:33:59;;;;;;;5.88;3.70;;;5.30;99.30;;;;;;5014419;28;20379;-88
2021/03/20 09:36:33;;;;;;;6.18;3.30;;;5.30;99.00;;;;;;5014499;28;20103;-89
2021/03/20 09:39:01;;;;;;;6.82;3.83;;;5.40;98.90;;;;;;5013368;28;20034;-89
2021/03/20 09:41:26;;;;;;;4.22;2.90;;;5.40;98.70;;;;;;5013854;28;20080;-87
2021/03/20 09:43:55;;;;;;;5.68;3.17;;;5.50;98.60;;;;;;5028721;28;20025;-90
2021/03/20 09:46:35;;;;;;;5.45;2.70;;;5.60;97.90;;;;;;5031288;28;20049;-87
2021/03/20 09:49:24;;;;;;;5.35;2.60;;;5.70;97.60;;;;;;5032155;28;20079;-87
2021/03/20 09:51:59;;;;;;;4.55;2.90;;;5.90;98.20;;;;;;5031157;28;20528;-89
2021/03/20 09:54:29;;;;;;;5.53;2.78;;;6.80;99.00;;;;;;5030826;28;20430;-88
2021/03/20 09:56:55;;;;;;;5.57;3.25;;;8.60;97.60;;;;;;5032916;28;20442;-87
2021/03/20 09:59:27;;;;;;;3.58;2.50;;;10.30;95.50;;;;;;5036804;28;20049;-87
2021/03/20 10:01:57;;;;;;;2.83;1.98;;;11.70;94.30;;;;;;5045210;28;20044;-88
2021/03/20 10:04:34;;;;;;;4.80;2.03;;;12.80;92.80;;;;;;5035138;28;20022;-88
2021/03/20 10:07:23;;;;;;;4.13;1.80;;;13.90;91.40;;;;;;5041682;28;20036;-89
2021/03/20 10:10:10;;;;;;;3.60;2.00;;;14.80;88.10;;;;;;5034848;28;20042;-88
2021/03/20 10:12:45;;;;;;;3.83;2.22;;;15.50;84.40;;;;;;5042193;28;20159;-89
2021/03/20 10:15:14;;;;;;;5.45;2.72;;;15.90;82.70;;;;;;5034968;28;20537;-88
2021/03/20 10:18:20;;;;;;;3.50;2.15;;;16.20;78.40;;;;;;5035657;28;20037;-87
2021/03/20 10:20:51;;;;;;;3.92;2.20;;;16.30;77.50;;;;;;4954403;28;20030;-88
2021/03/20 10:23:43;;;;;;;2.92;2.08;;;16.30;73.30;;;;;;5019769;28;20040;-87
2021/03/20 10:26:26;;;;;;;2.78;1.77;;;16.60;71.10;;;;;;5030395;28;20112;-88
2021/03/20 10:29:22;;;;;;;2.92;1.88;;;17.00;70.10;;;;;;5035901;28;20482;-88
2021/03/20 10:31:53;;;;;;;3.38;1.65;;;17.30;68.00;;;;;;5040136;28;20040;-89
2021/03/20 10:34:21;;;;;;;2.92;1.77;;;17.40;68.90;;;;;;5031232;28;20024;-88
2021/03/20 10:37:00;;;;;;;4.15;2.10;;;17.70;67.20;;;;;;5036899;28;20128;-90
2021/03/20 10:39:35;;;;;;;3.10;1.80;;;17.90;65.90;;;;;;5032838;28;20096;-87
2021/03/20 10:42:09;;;;;;;2.50;1.75;;;18.00;65.70;;;;;;5031921;28;20110;-88
2021/03/20 10:44:39;;;;;;;;;;;18.20;64.70;;;;;;5042054;28;20384;-88
2021/03/20 10:47:19;;;;;;;5.38;2.30;;;18.00;61.90;;;;;;5049238;28;19909;-87
2021/03/20 10:49:54;;;;;;;4.40;2.13;;;17.50;60.70;;;;;;5049214;28;20487;-91
2021/03/20 10:52:25;;;;;;;3.38;1.90;;;16.90;61.70;;;;;;5048623;28;20033;-87
2021/03/20 10:54:54;;;;;;;3.22;1.88;;;17.20;62.10;;;;;;5050461;28;20056;-86
2021/03/20 10:57:25;;;;;;;3.83;2.40;;;17.40;61.00;;;;;;5053977;28;20060;-89
2021/03/20 10:59:52;;;;;;;3.97;2.38;;;17.40;59.60;;;;;;5053857;28;20386;-88
2021/03/20 11:02:30;;;;;;;4.55;2.85;;;17.00;60.30;;;;;;5054299;28;20057;-89
2021/03/20 11:05:23;;;;;;;4.20;2.35;;;17.10;59.00;;;;;;5054883;28;20033;-88
2021/03/20 11:07:52;;;;;;;2.80;2.28;;;17.10;59.20;;;;;;5053163;28;20033;-87
2021/03/20 11:10:31;;;;;;;2.95;2.03;;;17.40;60.90;;;;;;5054877;28;20039;-88
2021/03/20 11:13:04;;;;;;;3.50;2.08;;;17.80;60.30;;;;;;5039932;28;20018;-89
2021/03/20 11:15:31;;;;;;;2.63;1.67;;;17.60;59.40;;;;;;5034904;28;20053;-89
2021/03/20 11:18:00;;;;;;;2.75;1.70;;;17.70;59.10;;;;;;5035446;28;20379;-90
2021/03/20 11:20:34;;;;;;;3.03;2.03;;;17.80;59.40;;;;;;5041872;28;20029;-90
2021/03/20 11:23:00;;;;;;;2.58;2.00;;;18.10;58.90;;;;;;5033041;28;20116;-90
2021/03/20 11:25:41;;;;;;;3.17;2.17;;;18.40;58.50;;;;;;5032883;28;20108;-90
2021/03/20 11:28:25;;;;;;;3.70;1.83;;;18.80;57.00;;;;;;5034796;28;20022;-90
2021/03/20 11:30:52;;;;;;;3.38;2.30;;;18.90;58.20;;;;;;5033951;28;20034;-92
2021/03/20 11:33:22;;;;;;;2.72;2.30;;;18.80;56.90;;;;;;5035193;28;20443;-88
2021/03/20 11:35:56;;;;;;;3.90;2.45;;;18.50;55.90;;;;;;5033611;28;20049;-88
2021/03/20 11:38:23;;;;;;;3.45;2.47;;;18.20;57.10;;;;;;5034605;28;20033;-88
2021/03/20 11:40:55;;;;;;;4.07;1.95;;;18.40;57.60;;;;;;5042911;28;20071;-88
2021/03/20 11:43:28;;;;;;;3.10;2.22;;;18.80;57.40;;;;;;5042427;28;20026;-90
2021/03/20 11:46:11;;;;;;;2.67;1.65;;;19.00;55.40;;;;;;5032470;28;20495;-89
2021/03/20 11:48:40;;;;;;;4.63;1.80;;;18.80;57.30;;;;;;5030791;28;20386;-86
2021/03/20 11:51:13;;;;;;;4.35;2.60;;;18.80;57.70;;;;;;5029541;28;20124;-88
2021/03/20 11:53:47;;;;;;;3.00;2.33;;;19.00;56.20;;;;;;5031880;28;20033;-85
2021/03/20 11:56:23;;;;;;;5.55;3.03;;;19.20;56.40;;;;;;5031257;28;20037;-88
2021/03/20 11:59:24;;;;;;;4.18;2.67;;;19.30;53.40;;;;;;5033877;28;20108;-87
2021/03/20 12:01:54;;;;;;;4.05;2.70;;;19.10;53.70;;;;;;5033915;28;20043;-91
2021/03/20 12:04:26;;;;;;;3.45;2.42;;;19.00;56.70;;;;;;5037461;28;20056;-91
2021/03/20 12:07:12;;;;;;;3.45;2.05;;;18.90;56.10;;;;;;5049091;28;20040;-91
2021/03/20 12:09:38;;;;;;;3.72;2.30;;;18.70;54.60;;;;;;5046833;28;20037;-91
2021/03/20 12:12:05;;;;;;;3.10;2.65;;;19.00;56.20;;;;;;5053713;28;20033;-90
2021/03/20 12:14:47;;;;;;;4.75;2.10;;;18.90;57.00;;;;;;5037496;28;20022;-92
2021/03/20 12:17:33;;;;;;;5.30;2.70;;;18.90;57.40;;;;;;5036145;28;20529;-91
2021/03/20 12:20:27;;;;;;;3.75;2.60;;;19.00;55.20;;;;;;5031844;28;20479;-92
2021/03/20 12:22:55;;;;;;;3.50;2.10;;;18.90;55.30;;;;;;5035195;28;20037;-89
2021/03/20 12:25:23;;;;;;;3.97;2.60;;;18.30;57.80;;;;;;5035926;28;20147;-92
2021/03/20 12:27:51;;;;;;;4.50;2.58;;;18.20;56.20;;;;;;5035509;28;20459;-90
2021/03/20 12:30:17;;;;;;;3.05;1.90;;;18.40;56.40;;;;;;5059286;28;20017;-92
2021/03/20 12:32:44;;;;;;;5.00;2.85;;;18.60;58.20;;;;;;5045413;28;20033;-91
2021/03/20 12:35:19;;;;;;;3.38;2.55;;;18.80;54.50;;;;;;5042335;28;20021;-92
2021/03/20 12:38:03;;;;;;;4.97;2.90;;;18.20;55.00;;;;;;5034354;28;20042;-92
2021/03/20 12:40:31;;;;;;;4.57;2.50;;;17.80;57.50;;;;;;5063422;28;20017;-92
2021/03/20 12:43:01;;;;;;;3.05;2.28;;;17.80;58.60;;;;;;5048684;28;20371;-92
2021/03/20 12:45:29;;;;;;;3.63;2.58;;;18.10;57.60;;;;;;5054385;28;20049;-91
2021/03/20 12:47:54;;;;;;;3.25;2.58;;;18.10;58.10;;;;;;5054481;28;20028;-89
2021/03/20 12:50:20;;;;;;;5.03;3.00;;;18.40;58.00;;;;;;5053913;28;20021;-92
2021/03/20 12:52:46;;;;;;;4.10;2.75;;;18.60;56.20;;;;;;5054614;28;20052;-91
2021/03/20 12:55:13;;;;;;;3.90;2.55;;;18.50;55.70;;;;;;5055391;28;20075;-91
2021/03/20 12:57:39;;;;;;;4.03;2.90;;;18.50;54.40;;;;;;5054845;28;20114;-91
2021/03/20 13:00:15;;;;;;;4.45;2.70;;;18.50;56.70;;;;;;5054598;28;20017;-91
2021/03/20 13:02:41;;;;;;;4.53;2.78;;;18.30;56.80;;;;;;5054812;28;20386;-91
2021/03/20 13:05:07;;;;;;;3.97;2.55;;;18.10;55.30;;;;;;5054881;28;20025;-91
2021/03/20 13:07:33;;;;;;;4.18;2.58;;;18.00;55.00;;;;;;5054759;28;20130;-92
2021/03/20 13:09:58;;;;;;;2.83;1.88;;;18.00;55.30;;;;;;5055412;28;20028;-91
2021/03/20 13:12:24;;;;;;;3.42;2.00;;;18.00;56.90;;;;;;5054390;28;20049;-90
2021/03/20 13:14:50;;;;;;;2.75;2.05;;;18.50;56.30;;;;;;5054899;28;20053;-90
2021/03/20 13:17:15;;;;;;;3.25;2.00;;;18.50;55.90;;;;;;5054607;28;20474;-90
2021/03/20 13:19:41;;;;;;;2.80;1.67;;;18.80;54.90;;;;;;5054471;28;20025;-91
2021/03/20 13:22:07;;;;;;;3.03;2.00;;;19.10;57.50;;;;;;5054586;28;20029;-90
2021/03/20 13:24:33;;;;;;;3.33;1.90;;;19.20;55.40;;;;;;5054654;28;20111;-92
2021/03/20 13:27:01;;;;;;;3.00;2.25;;;19.00;55.10;;;;;;5055061;28;20059;-91
2021/03/20 13:29:27;;;;;;;3.33;2.30;;;18.50;52.20;;;;;;5054443;28;20428;-91
2021/03/20 13:31:53;;;;;;;3.10;2.53;;;17.80;54.20;;;;;;5054798;28;20044;-92